sensor_id;sensor_type;location;lat;lon;timestamp;P1;durP1;ratioP1;P2;durP2;ratioP2
59689;SDS011;45557;50.298;18.930;2022-07-09T00:01:38;6.40;;;3.60;;
59689;SDS011;45557;50.298;18.930;2022-07-09T00:08:25;16.10;;;6.20;;
59689;SDS011;45557;50.298;18.930;2022-07-09T00:15:10;7.50;;;3.80;;
59689;SDS011;45557;50.298;18.930;2022-07-09T00:22:21;7.00;;;3.10;;
59689;SDS011;45557;50.298;18.930;2022-07-09T00:29:29;8.10;;;3.00;;
59689;SDS011;45557;50.298;18.930;2022-07-09T00:36:52;10.30;;;3.40;;
59689;SDS011;45557;50.298;18.930;2022-07-09T00:44:12;6.80;;;2.70;;
59689;SDS011;45557;50.298;18.930;2022-07-09T00:51:26;5.80;;;2.80;;
59689;SDS011;45557;50.298;18.930;2022-07-09T00:58:28;7.00;;;3.50;;
59689;SDS011;45557;50.298;18.930;2022-07-09T01:05:23;6.50;;;2.90;;
59689;SDS011;45557;50.298;18.930;2022-07-09T01:12:17;9.60;;;3.30;;
59689;SDS011;45557;50.298;18.930;2022-07-09T01:29:22;9.40;;;3.20;;
59689;SDS011;45557;50.298;18.930;2022-07-09T01:35:54;10.90;;;3.80;;
59689;SDS011;45557;50.298;18.930;2022-07-09T01:42:21;6.50;;;2.90;;
59689;SDS011;45557;50.298;18.930;2022-07-09T01:49:28;9.00;;;3.60;;
59689;SDS011;45557;50.298;18.930;2022-07-09T01:55:44;9.10;;;3.00;;
59689;SDS011;45557;50.298;18.930;2022-07-09T02:02:15;7.80;;;3.00;;
59689;SDS011;45557;50.298;18.930;2022-07-09T02:09:05;7.60;;;3.40;;
59689;SDS011;45557;50.298;18.930;2022-07-09T02:15:48;10.10;;;4.50;;
59689;SDS011;45557;50.298;18.930;2022-07-09T02:22:58;10.20;;;4.20;;
59689;SDS011;45557;50.298;18.930;2022-07-09T02:29:46;10.70;;;4.80;;
59689;SDS011;45557;50.298;18.930;2022-07-09T02:36:55;8.60;;;4.10;;
59689;SDS011;45557;50.298;18.930;2022-07-09T02:44:27;11.70;;;4.50;;
59689;SDS011;45557;50.298;18.930;2022-07-09T02:51:09;10.80;;;4.40;;
59689;SDS011;45557;50.298;18.930;2022-07-09T02:57:51;9.60;;;4.20;;
59689;SDS011;45557;50.298;18.930;2022-07-09T03:04:33;8.40;;;4.40;;
59689;SDS011;45557;50.298;18.930;2022-07-09T03:11:51;7.70;;;3.70;;
59689;SDS011;45557;50.298;18.930;2022-07-09T03:18:24;10.80;;;5.20;;
59689;SDS011;45557;50.298;18.930;2022-07-09T03:25:19;7.30;;;3.70;;
59689;SDS011;45557;50.298;18.930;2022-07-09T03:31:43;7.10;;;3.20;;
59689;SDS011;45557;50.298;18.930;2022-07-09T03:38:25;5.20;;;2.50;;
59689;SDS011;45557;50.298;18.930;2022-07-09T03:45:09;6.50;;;3.40;;
59689;SDS011;45557;50.298;18.930;2022-07-09T03:51:46;6.20;;;2.80;;
59689;SDS011;45557;50.298;18.930;2022-07-09T03:58:38;6.70;;;3.20;;
59689;SDS011;45557;50.298;18.930;2022-07-09T04:05:49;7.70;;;3.60;;
59689;SDS011;45557;50.298;18.930;2022-07-09T04:12:58;6.80;;;3.30;;
59689;SDS011;45557;50.298;18.930;2022-07-09T04:19:59;9.10;;;3.60;;
59689;SDS011;45557;50.298;18.930;2022-07-09T04:26:47;7.60;;;3.10;;
59689;SDS011;45557;50.298;18.930;2022-07-09T04:33:44;7.00;;;2.60;;
59689;SDS011;45557;50.298;18.930;2022-07-09T04:40:55;7.90;;;3.20;;
59689;SDS011;45557;50.298;18.930;2022-07-09T04:47:19;4.90;;;2.60;;
59689;SDS011;45557;50.298;18.930;2022-07-09T04:54:24;7.50;;;2.60;;
59689;SDS011;45557;50.298;18.930;2022-07-09T05:01:14;6.20;;;2.20;;
59689;SDS011;45557;50.298;18.930;2022-07-09T05:07:57;5.20;;;2.60;;
59689;SDS011;45557;50.298;18.930;2022-07-09T05:22:01;5.90;;;2.50;;
59689;SDS011;45557;50.298;18.930;2022-07-09T05:28:51;5.70;;;2.00;;
59689;SDS011;45557;50.298;18.930;2022-07-09T05:35:04;5.10;;;2.20;;
59689;SDS011;45557;50.298;18.930;2022-07-09T05:41:20;8.50;;;3.40;;
59689;SDS011;45557;50.298;18.930;2022-07-09T05:48:13;7.50;;;3.50;;
59689;SDS011;45557;50.298;18.930;2022-07-09T05:54:07;5.00;;;2.50;;
59689;SDS011;45557;50.298;18.930;2022-07-09T06:00:47;6.90;;;2.80;;
59689;SDS011;45557;50.298;18.930;2022-07-09T06:06:31;8.80;;;3.40;;
59689;SDS011;45557;50.298;18.930;2022-07-09T07:10:23;5.30;;;2.30;;
59689;SDS011;45557;50.298;18.930;2022-07-09T07:32:38;7.30;;;3.50;;
59689;SDS011;45557;50.298;18.930;2022-07-09T07:57:33;5.50;;;3.80;;
59689;SDS011;45557;50.298;18.930;2022-07-09T08:23:29;9.30;;;4.90;;
59689;SDS011;45557;50.298;18.930;2022-07-09T08:47:20;9.50;;;7.60;;
59689;SDS011;45557;50.298;18.930;2022-07-09T09:00:54;10.20;;;5.20;;
59689;SDS011;45557;50.298;18.930;2022-07-09T09:19:31;6.40;;;3.20;;
59689;SDS011;45557;50.298;18.930;2022-07-09T10:21:50;3.40;;;1.50;;
59689;SDS011;45557;50.298;18.930;2022-07-09T10:41:46;3.90;;;1.50;;
59689;SDS011;45557;50.298;18.930;2022-07-09T11:01:54;4.80;;;1.50;;
59689;SDS011;45557;50.298;18.930;2022-07-09T11:08:28;3.80;;;1.90;;
59689;SDS011;45557;50.298;18.930;2022-07-09T11:14:31;4.00;;;1.50;;
59689;SDS011;45557;50.298;18.930;2022-07-09T11:19:53;6.10;;;1.90;;
59689;SDS011;45557;50.298;18.930;2022-07-09T11:26:43;3.90;;;1.30;;
59689;SDS011;45557;50.298;18.930;2022-07-09T11:34:10;3.40;;;1.50;;
59689;SDS011;45557;50.298;18.930;2022-07-09T11:41:25;3.90;;;1.50;;
59689;SDS011;45557;50.298;18.930;2022-07-09T11:49:01;3.30;;;1.50;;
59689;SDS011;45557;50.298;18.930;2022-07-09T11:55:57;3.10;;;1.50;;
59689;SDS011;45557;50.298;18.930;2022-07-09T12:02:38;3.80;;;1.40;;
59689;SDS011;45557;50.298;18.930;2022-07-09T12:08:42;3.10;;;1.60;;
59689;SDS011;45557;50.298;18.930;2022-07-09T12:14:47;3.20;;;1.50;;
59689;SDS011;45557;50.298;18.930;2022-07-09T12:20:31;3.00;;;1.80;;
59689;SDS011;45557;50.298;18.930;2022-07-09T12:26:15;2.90;;;1.70;;
59689;SDS011;45557;50.298;18.930;2022-07-09T12:31:42;4.70;;;1.60;;
59689;SDS011;45557;50.298;18.930;2022-07-09T12:44:37;4.90;;;1.90;;
59689;SDS011;45557;50.298;18.930;2022-07-09T12:51:58;3.80;;;1.50;;
59689;SDS011;45557;50.298;18.930;2022-07-09T13:04:08;5.30;;;2.40;;
59689;SDS011;45557;50.298;18.930;2022-07-09T13:10:48;3.20;;;1.60;;
59689;SDS011;45557;50.298;18.930;2022-07-09T13:22:19;4.30;;;1.80;;
59689;SDS011;45557;50.298;18.930;2022-07-09T13:34:05;5.20;;;2.60;;
59689;SDS011;45557;50.298;18.930;2022-07-09T13:41:05;1.90;;;1.50;;
59689;SDS011;45557;50.298;18.930;2022-07-09T13:59:35;5.50;;;1.80;;
59689;SDS011;45557;50.298;18.930;2022-07-09T14:11:57;3.70;;;1.80;;
59689;SDS011;45557;50.298;18.930;2022-07-09T18:07:48;7.80;;;2.90;;
59689;SDS011;45557;50.298;18.930;2022-07-09T18:50:45;5.20;;;2.40;;
59689;SDS011;45557;50.298;18.930;2022-07-09T18:56:07;4.30;;;2.20;;
59689;SDS011;45557;50.298;18.930;2022-07-09T19:01:28;5.40;;;2.60;;
59689;SDS011;45557;50.298;18.930;2022-07-09T19:06:49;6.00;;;2.60;;
59689;SDS011;45557;50.298;18.930;2022-07-09T19:13:39;6.50;;;2.60;;
59689;SDS011;45557;50.298;18.930;2022-07-09T19:19:01;5.20;;;2.90;;
59689;SDS011;45557;50.298;18.930;2022-07-09T19:24:27;5.80;;;3.00;;
59689;SDS011;45557;50.298;18.930;2022-07-09T19:29:50;6.30;;;3.10;;
59689;SDS011;45557;50.298;18.930;2022-07-09T19:35:12;7.30;;;3.30;;
59689;SDS011;45557;50.298;18.930;2022-07-09T19:40:33;7.00;;;3.10;;
59689;SDS011;45557;50.298;18.930;2022-07-09T19:45:55;7.40;;;3.60;;
59689;SDS011;45557;50.298;18.930;2022-07-09T19:52:41;7.40;;;4.70;;
59689;SDS011;45557;50.298;18.930;2022-07-09T19:59:27;8.70;;;4.20;;
59689;SDS011;45557;50.298;18.930;2022-07-09T20:06:14;9.00;;;4.40;;
59689;SDS011;45557;50.298;18.930;2022-07-09T20:12:19;9.00;;;4.80;;
59689;SDS011;45557;50.298;18.930;2022-07-09T20:19:35;7.90;;;4.20;;
59689;SDS011;45557;50.298;18.930;2022-07-09T20:26:18;8.70;;;4.60;;
59689;SDS011;45557;50.298;18.930;2022-07-09T20:32:13;7.50;;;4.50;;
59689;SDS011;45557;50.298;18.930;2022-07-09T20:39:01;7.30;;;4.80;;
59689;SDS011;45557;50.298;18.930;2022-07-09T20:45:59;8.00;;;5.00;;
59689;SDS011;45557;50.298;18.930;2022-07-09T20:52:55;8.70;;;4.00;;
59689;SDS011;45557;50.298;18.930;2022-07-09T20:59:41;8.20;;;4.30;;
59689;SDS011;45557;50.298;18.930;2022-07-09T21:06:20;10.30;;;5.80;;
59689;SDS011;45557;50.298;18.930;2022-07-09T21:11:56;7.60;;;4.10;;
59689;SDS011;45557;50.298;18.930;2022-07-09T21:18:33;9.00;;;5.10;;
59689;SDS011;45557;50.298;18.930;2022-07-09T21:24:17;7.50;;;4.80;;
59689;SDS011;45557;50.298;18.930;2022-07-09T21:29:51;8.90;;;4.50;;
59689;SDS011;45557;50.298;18.930;2022-07-09T21:42:40;6.90;;;3.50;;
59689;SDS011;45557;50.298;18.930;2022-07-09T21:49:27;6.90;;;3.80;;
59689;SDS011;45557;50.298;18.930;2022-07-09T21:56:22;8.10;;;4.10;;
59689;SDS011;45557;50.298;18.930;2022-07-09T22:03:17;6.60;;;4.00;;
59689;SDS011;45557;50.298;18.930;2022-07-09T22:10:02;7.40;;;4.30;;
59689;SDS011;45557;50.298;18.930;2022-07-09T22:16:08;6.40;;;4.00;;
59689;SDS011;45557;50.298;18.930;2022-07-09T22:22:50;10.10;;;3.90;;
59689;SDS011;45557;50.298;18.930;2022-07-09T22:29:32;5.80;;;3.70;;
59689;SDS011;45557;50.298;18.930;2022-07-09T22:42:46;7.80;;;4.20;;
59689;SDS011;45557;50.298;18.930;2022-07-09T22:49:26;9.00;;;3.70;;
59689;SDS011;45557;50.298;18.930;2022-07-09T22:54:47;8.30;;;4.00;;
59689;SDS011;45557;50.298;18.930;2022-07-09T23:00:09;6.70;;;3.60;;
59689;SDS011;45557;50.298;18.930;2022-07-09T23:07:15;7.10;;;3.40;;
59689;SDS011;45557;50.298;18.930;2022-07-09T23:14:08;5.30;;;3.40;;
59689;SDS011;45557;50.298;18.930;2022-07-09T23:21:00;6.10;;;3.70;;
